Meteo Giornale » Osservazioni meteo Italia » Milano-Linate

ore: 00:20 - Osservazioni Meteo Milano-Linate
Lat. 45° 26' N Lon. 9° 17' E Alt. 107 metri s.l.m.

nuvoloso Europe/Rome

15 °C

Nuvoloso

Temp. 24 Ore

13 °C

23 °C

Sud/Sud-Est

7.4 Km/h

Dew point 10 °C

Umidità 72 %

Visibilità  10 Km

Il sole sorge alle ore 05:51

Il sole tramonta alle ore 20:46

Data e Ora Cielo e Fenomeni T °C DP °C Um. % Pres. hPa Vis. km Vento km/h
Oggi h: 00:20 nuvoloso Nuvoloso 15 10 72 1006 10 S/SE 7.4
Ieri h: 23:50 coperto_pioggia Pioggia Debole 16 6 51 1005 10 N 7.4
Ieri h: 23:20 coperto_pioggia Pioggia 15 9 67 1006 10 NO 13
Ieri h: 22:20 nuvoloso Nuvoloso 16 9 63 1005 10 N 5.5
Ieri h: 21:20 sereno Sereno 15 8 62 1004 10 N 1.8
Ieri h: 20:50 sereno Sereno 16 8 58 1004 10 N 5.5
Ieri h: 20:20 sereno Sereno 17 8 55 1004 10 N 5.5
Ieri h: 19:50 sereno Sereno 17 9 59 1003 10 NE 11.1
Ieri h: 19:20 poco_nuvoloso Poco Nuvoloso 17 9 59 1003 10 NE 16.7
Ieri h: 18:50 nuvoloso Nuvoloso 18 9 55 1003 10 E/NE 14.8
Ieri h: 18:20 nuvoloso Nuvoloso 17 9 59 1003 10 NE 16.7
Ieri h: 17:20 nuvoloso Nuvoloso 20 6 39 1003 10 N 20.3
Ieri h: 16:50 nuvoloso Nuvoloso 23 8 38 1002 10 SO 9.3
Ieri h: 16:20 poco_nuvoloso Poco Nuvoloso 23 9 40 1002 10 O/SO 9.3
Ieri h: 15:50 poco_nuvoloso Poco Nuvoloso 23 8 38 1002 10 SO 9.3
Ieri h: 15:20 poco_nuvoloso Poco Nuvoloso 22 9 43 1002 10 S/SO 7.4
Ieri h: 14:50 poco_nuvoloso Poco Nuvoloso 22 10 46 1003 10 O/SO 13
Ieri h: 14:20 poco_nuvoloso Poco Nuvoloso 22 11 49 1003 10 S/SO 13
Ieri h: 13:50 poco_nuvoloso Poco Nuvoloso 21 11 52 1003 10 O/SO 9.3
Ieri h: 13:20 poco_nuvoloso Poco Nuvoloso 20 11 56 1003 10 S/SO 13
Ieri h: 12:50 poco_nuvoloso Poco Nuvoloso 20 12 59 1004 10 O/SO 11.1
Ieri h: 12:20 poco_nuvoloso Poco Nuvoloso 19 11 59 1004 10 O/SO 9.3
Ieri h: 11:50 poco_nuvoloso Poco Nuvoloso 19 11 59 1004 10 SO 11.1
Ieri h: 11:20 poco_nuvoloso Poco Nuvoloso 18 11 63 1004 10 O 11.1
Ieri h: 10:50 poco_nuvoloso Poco Nuvoloso 17 12 72 1005 10 O/SO 11.1
Ieri h: 10:20 poco_nuvoloso Poco Nuvoloso 17 11 67 1005 10 N 5.5
Ieri h: 09:50 poco_nuvoloso Poco Nuvoloso 16 11 72 1005 10 O 11.1
Ieri h: 09:20 poco_nuvoloso Poco Nuvoloso 16 10 67 1005 10 O 11.1
Ieri h: 08:50 poco_nuvoloso Poco Nuvoloso 15 10 72 1005 10 O 13
Ieri h: 08:20 nuvoloso Nuvoloso 15 11 76 1005 10 N 9.3
Ieri h: 07:50 nuvoloso Nuvoloso 14 10 76 1005 10 N 5.5
Ieri h: 07:20 nuvoloso Nuvoloso 14 10 76 1005 10 N 3.7
Ieri h: 06:50 nuvoloso Nuvoloso 14 10 76 1005 10 N 3.7
Ieri h: 06:20 molto_nuvoloso Molto Nuvoloso 14 10 76 1005 10 N 5.5
Ieri h: 05:50 molto_nuvoloso Molto Nuvoloso 14 10 76 1006 10 O/NO 7.4
Ieri h: 05:20 coperto Coperto 14 10 76 1006 10 NO 7.4
Ieri h: 04:50 coperto Coperto 13 10 81 1006 10 N 5.5
Ieri h: 04:20 molto_nuvoloso Molto Nuvoloso 14 9 71 1006 10 N 3.7
Ieri h: 03:50 molto_nuvoloso Molto Nuvoloso 14 9 71 1006 10 NO 7.4
Ieri h: 03:20 molto_nuvoloso Molto Nuvoloso 15 9 67 1007 10 O/NO 13
Ieri h: 02:50 molto_nuvoloso Molto Nuvoloso 14 9 71 1006 10 S/SO 9.3
Ieri h: 02:20 molto_nuvoloso Molto Nuvoloso 15 8 62 1006 10 N 3.7
Ieri h: 01:50 molto_nuvoloso Molto Nuvoloso 15 8 62 1007 10 O/NO 7.4